TimeCDT,TemperatureF,Dew PointF,Humidity,Sea Level PressureIn,VisibilityMPH,Wind Direction,Wind SpeedMPH,Gust SpeedMPH,PrecipitationIn,Events,Conditions,WindDirDegrees,DateUTC
12:53 AM,71.1,44.1,38,29.70,10.0,SE,10.4,-,N/A,,Clear,130,2013-03-17 05:53:00
1:53 AM,69.1,46.0,44,29.71,10.0,ESE,9.2,-,N/A,,Clear,120,2013-03-17 06:53:00
2:53 AM,68.0,48.9,50,29.68,10.0,East,10.4,-,N/A,,Clear,100,2013-03-17 07:53:00
3:53 AM,66.0,54.0,65,29.68,10.0,ESE,8.1,-,N/A,,Clear,110,2013-03-17 08:53:00
4:53 AM,64.9,57.0,75,29.68,10.0,East,10.4,-,N/A,,Clear,100,2013-03-17 09:53:00
5:53 AM,64.0,57.0,78,29.67,10.0,ESE,11.5,-,N/A,,Clear,110,2013-03-17 10:53:00
6:53 AM,63.0,57.0,81,29.69,10.0,East,8.1,-,N/A,,Clear,100,2013-03-17 11:53:00
7:53 AM,61.0,57.9,90,29.72,10.0,ESE,5.8,-,N/A,,Mostly Cloudy,120,2013-03-17 12:53:00
8:53 AM,63.0,57.9,84,29.73,9.0,East,5.8,-,N/A,,Overcast,90,2013-03-17 13:53:00
9:53 AM,64.9,59.0,81,29.75,9.0,SE,3.5,-,N/A,,Overcast,140,2013-03-17 14:53:00
10:53 AM,69.1,59.0,70,29.75,8.0,Variable,4.6,-,N/A,,Mostly Cloudy,0,2013-03-17 15:53:00
11:03 AM,69.8,59.0,68,29.79,8.0,Calm,Calm,-,N/A,,Scattered Clouds,0,2013-03-17 16:03:00
11:53 AM,71.1,59.0,66,29.75,9.0,Calm,Calm,-,N/A,,Clear,0,2013-03-17 16:53:00
12:53 PM,75.9,57.0,52,29.73,10.0,Variable,3.5,-,N/A,,Clear,0,2013-03-17 17:53:00
1:53 PM,82.9,50.0,32,29.69,10.0,NNW,5.8,-,N/A,,Clear,340,2013-03-17 18:53:00
2:53 PM,90.0,39.0,17,29.64,10.0,NW,12.7,18.4,N/A,,Clear,320,2013-03-17 19:53:00
3:53 PM,93.0,25.0,9,29.59,10.0,North,12.7,20.7,N/A,,Clear,350,2013-03-17 20:53:00
4:53 PM,93.9,19.0,7,29.56,10.0,North,9.2,-,N/A,,Clear,10,2013-03-17 21:53:00
5:53 PM,93.9,18.0,6,29.55,10.0,SW,8.1,-,N/A,,Clear,230,2013-03-17 22:53:00
6:53 PM,93.0,19.0,7,29.55,10.0,SE,5.8,-,N/A,,Clear,140,2013-03-17 23:53:00
7:53 PM,87.1,23.0,10,29.56,10.0,SSE,4.6,-,N/A,,Clear,150,2013-03-18 00:53:00
8:53 PM,82.9,25.0,12,29.58,10.0,ESE,4.6,-,N/A,,Clear,120,2013-03-18 01:53:00
9:53 PM,78.1,28.0,16,29.62,10.0,Calm,Calm,-,N/A,,Clear,0,2013-03-18 02:53:00
10:53 PM,75.0,28.9,18,29.64,10.0,ESE,5.8,-,N/A,,Clear,120,2013-03-18 03:53:00
11:53 PM,70.0,33.1,26,29.65,10.0,Calm,Calm,-,N/A,,Clear,0,2013-03-18 04:53:00